createdAt,value
2022-12-25T04:02:46.184Z,9.00
2022-12-25T04:05:32.263Z,9.00
2022-12-25T04:08:18.152Z,8.90
2022-12-25T04:11:04.124Z,8.80
2022-12-25T04:13:50.178Z,8.90
2022-12-25T04:16:36.248Z,8.90
2022-12-25T04:19:22.454Z,8.90
2022-12-25T04:22:08.414Z,8.90
2022-12-25T04:24:54.207Z,8.90
2022-12-25T04:27:40.097Z,8.80
2022-12-25T04:30:26.597Z,8.90
2022-12-25T04:33:16.609Z,8.90
2022-12-25T04:36:08.486Z,9.00
2022-12-25T04:38:36.831Z,9.00
2022-12-25T04:41:04.866Z,9.00
2022-12-25T04:43:32.373Z,8.90
2022-12-25T04:46:01.629Z,9.00
2022-12-25T04:48:30.716Z,8.90
2022-12-25T04:50:57.980Z,8.90
2022-12-25T04:53:25.307Z,8.90
2022-12-25T04:56:01.760Z,8.90
2022-12-25T04:58:29.316Z,8.90
2022-12-25T05:01:00.369Z,8.90
2022-12-25T05:03:28.278Z,9.00
2022-12-25T05:05:55.605Z,9.00
2022-12-25T05:08:23.529Z,8.90
2022-12-25T05:10:51.004Z,8.90
2022-12-25T05:13:18.265Z,8.90
2022-12-25T05:15:45.575Z,8.70
2022-12-25T05:18:12.881Z,8.70
2022-12-25T05:20:40.595Z,8.80
2022-12-25T05:23:11.130Z,8.80
2022-12-25T05:25:41.465Z,8.80
2022-12-25T05:28:09.520Z,8.80
2022-12-25T05:30:36.826Z,8.70
2022-12-25T05:33:04.276Z,8.80
2022-12-25T05:35:31.603Z,8.80
2022-12-25T05:37:58.948Z,8.90
2022-12-25T05:40:26.264Z,8.80
2022-12-25T05:42:53.497Z,8.70
2022-12-25T05:45:20.748Z,8.80
2022-12-25T05:47:47.975Z,8.90
2022-12-25T05:50:15.257Z,8.90
2022-12-25T05:52:42.753Z,8.90
2022-12-25T05:55:09.990Z,8.90
2022-12-25T05:57:37.356Z,8.80
2022-12-25T06:00:06.108Z,8.80
2022-12-25T06:02:35.658Z,8.80
2022-12-25T06:05:04.217Z,8.80
2022-12-25T06:07:31.488Z,8.50
2022-12-25T06:09:58.885Z,8.50
2022-12-25T06:12:26.151Z,8.50
2022-12-25T06:14:53.340Z,8.50
2022-12-25T06:17:20.604Z,8.50
2022-12-25T06:19:47.870Z,8.60
2022-12-25T06:22:15.171Z,8.60
2022-12-25T06:24:42.557Z,8.60
2022-12-25T06:27:09.752Z,8.60
2022-12-25T06:29:37.026Z,8.60
2022-12-25T06:32:04.532Z,8.60
2022-12-25T06:34:31.819Z,8.50
2022-12-25T06:36:59.024Z,8.50
2022-12-25T06:39:26.283Z,8.60
2022-12-25T06:41:53.581Z,8.60
2022-12-25T06:44:21.238Z,8.60
2022-12-25T06:46:48.561Z,8.60
2022-12-25T06:49:15.831Z,8.40
2022-12-25T06:51:43.041Z,8.40
2022-12-25T06:54:10.361Z,8.40
2022-12-25T06:56:37.831Z,8.40
2022-12-25T06:59:07.729Z,8.40
2022-12-25T07:01:54.658Z,8.30
2022-12-25T07:04:27.618Z,8.30
2022-12-25T07:06:54.867Z,8.20
2022-12-25T07:09:22.095Z,8.10
2022-12-25T07:11:49.365Z,8.10
2022-12-25T07:14:24.228Z,7.90
2022-12-25T07:16:52.056Z,7.70
2022-12-25T07:19:19.446Z,7.60
2022-12-25T07:21:47.335Z,7.50
2022-12-25T07:24:21.781Z,7.60
2022-12-25T07:26:49.824Z,7.60
2022-12-25T07:29:17.719Z,7.60
2022-12-25T07:31:45.232Z,7.60
2022-12-25T07:34:12.455Z,7.60
2022-12-25T07:36:39.717Z,7.60
2022-12-25T07:39:06.995Z,7.70
2022-12-25T07:41:34.228Z,7.70
2022-12-25T07:44:01.540Z,7.60
2022-12-25T07:46:29.099Z,7.60
2022-12-25T07:48:56.357Z,7.60
2022-12-25T07:51:23.715Z,7.60
2022-12-25T07:53:50.992Z,7.60
2022-12-25T07:56:20.344Z,7.50
2022-12-25T07:58:48.687Z,7.10
2022-12-25T08:01:21.718Z,7.10
2022-12-25T08:03:57.411Z,6.90
2022-12-25T08:06:29.751Z,7.10
2022-12-25T08:09:02.800Z,7.30
2022-12-25T08:11:30.125Z,7.60
2022-12-25T08:13:57.437Z,7.60
2022-12-25T08:16:24.923Z,7.60
2022-12-25T08:18:53.405Z,7.60
2022-12-25T08:21:20.761Z,7.60
2022-12-25T08:23:48.367Z,7.70
2022-12-25T08:26:21.745Z,7.80
2022-12-25T08:28:49.869Z,7.80
2022-12-25T08:31:20.585Z,7.80
2022-12-25T08:33:49.389Z,7.80
2022-12-25T08:36:17.734Z,7.90
2022-12-25T08:38:45.535Z,8.10
2022-12-25T08:41:13.015Z,8.10
2022-12-25T08:43:40.308Z,8.20
2022-12-25T08:46:08.117Z,8.20
2022-12-25T08:48:35.701Z,8.20
2022-12-25T08:51:04.767Z,8.20
2022-12-25T08:53:32.002Z,8.30
2022-12-25T08:56:01.000Z,8.30
2022-12-25T08:58:28.610Z,8.40
2022-12-25T09:00:56.753Z,8.40
2022-12-25T09:03:24.916Z,8.50
2022-12-25T09:05:53.829Z,8.50
2022-12-25T09:08:21.918Z,8.60
2022-12-25T09:10:49.687Z,8.60
2022-12-25T09:13:17.138Z,8.70
2022-12-25T09:15:44.448Z,8.90
2022-12-25T09:18:11.791Z,9.10
2022-12-25T09:20:39.104Z,9.30
2022-12-25T09:23:13.308Z,9.40
2022-12-25T09:25:41.122Z,9.50
2022-12-25T09:28:08.452Z,9.60
2022-12-25T09:30:35.734Z,9.70
2022-12-25T09:33:02.953Z,9.80
2022-12-25T09:35:30.212Z,9.90
2022-12-25T09:37:57.545Z,10.00
2022-12-25T09:40:28.885Z,10.00
2022-12-25T09:42:56.983Z,10.10
2022-12-25T09:45:35.844Z,10.10
2022-12-25T09:48:03.490Z,10.10
2022-12-25T09:50:46.543Z,10.10
2022-12-25T09:53:22.812Z,10.00
2022-12-25T09:56:04.360Z,10.00
2022-12-25T09:58:33.086Z,10.20
2022-12-25T10:01:42.218Z,10.20
2022-12-25T10:04:29.898Z,10.20
2022-12-25T10:06:57.066Z,10.30
2022-12-25T10:09:34.765Z,10.60
2022-12-25T10:12:17.185Z,10.60
2022-12-25T10:15:03.761Z,10.70
2022-12-25T10:17:48.791Z,10.70
2022-12-25T10:20:54.419Z,10.70
2022-12-25T10:23:30.420Z,10.90
2022-12-25T10:25:57.750Z,10.90
2022-12-25T10:28:38.824Z,11.10
2022-12-25T10:31:20.208Z,11.10
2022-12-25T10:33:49.887Z,11.20
2022-12-25T10:36:26.498Z,11.20
2022-12-25T10:38:54.828Z,11.20
2022-12-25T10:41:22.049Z,11.20
2022-12-25T10:43:55.433Z,11.20
2022-12-25T10:46:26.506Z,11.20
2022-12-25T10:48:57.353Z,11.30
2022-12-25T10:51:35.035Z,11.30
2022-12-25T10:54:04.815Z,11.40
2022-12-25T10:56:32.127Z,11.40
2022-12-25T10:59:07.004Z,11.50
2022-12-25T11:01:34.605Z,11.50
2022-12-25T11:04:02.307Z,11.50
2022-12-25T11:06:32.334Z,11.50
2022-12-25T11:09:02.094Z,11.50
2022-12-25T11:11:30.494Z,11.60
2022-12-25T11:14:01.381Z,11.60
2022-12-25T11:16:37.042Z,11.60
2022-12-25T11:19:21.910Z,11.70
2022-12-25T11:22:00.351Z,11.70
2022-12-25T11:24:30.180Z,11.80
2022-12-25T11:27:01.093Z,11.90
2022-12-25T11:29:31.476Z,11.90
2022-12-25T11:32:00.467Z,11.90
2022-12-25T11:34:39.427Z,12.00
2022-12-25T11:37:15.771Z,12.00
2022-12-25T11:39:43.309Z,12.10
2022-12-25T11:42:21.308Z,12.10
2022-12-25T11:44:52.339Z,12.10
2022-12-25T11:47:31.107Z,12.10
2022-12-25T11:50:04.998Z,12.20
2022-12-25T11:52:36.845Z,12.20
2022-12-25T11:55:10.933Z,12.30
2022-12-25T11:57:39.189Z,12.30
2022-12-25T12:00:10.302Z,12.40
2022-12-25T12:02:46.757Z,12.50
2022-12-25T12:05:32.438Z,12.50
2022-12-25T12:08:02.753Z,12.60
2022-12-25T12:10:43.230Z,12.60
2022-12-25T12:13:44.320Z,12.60
2022-12-25T12:16:11.982Z,12.60
2022-12-25T12:18:39.286Z,12.80
2022-12-25T12:21:22.994Z,12.80
2022-12-25T12:23:50.238Z,12.80
2022-12-25T12:26:20.394Z,12.80
2022-12-25T12:28:50.515Z,12.80
2022-12-25T12:31:18.310Z,12.80
2022-12-25T12:33:59.265Z,12.90
2022-12-25T12:36:36.263Z,12.90
2022-12-25T12:39:06.037Z,12.90
2022-12-25T12:41:46.400Z,12.80
2022-12-25T12:44:16.216Z,12.80
2022-12-25T12:46:57.458Z,12.80
2022-12-25T12:49:26.853Z,12.90
2022-12-25T12:52:36.796Z,12.90
2022-12-25T12:55:13.941Z,12.90
2022-12-25T12:57:41.537Z,12.90
2022-12-25T13:00:19.683Z,12.90
2022-12-25T13:03:17.764Z,12.90
2022-12-25T13:05:54.449Z,12.90
2022-12-25T13:08:33.589Z,13.00
2022-12-25T13:11:21.676Z,13.00
2022-12-25T13:13:51.111Z,13.10
2022-12-25T13:16:32.198Z,13.10
2022-12-25T13:19:04.259Z,13.80
2022-12-25T13:21:32.645Z,13.90
2022-12-25T13:24:02.594Z,14.00
2022-12-25T13:26:30.970Z,14.00
2022-12-25T13:28:59.213Z,13.50
2022-12-25T13:31:28.663Z,13.40
2022-12-25T13:34:03.607Z,13.40
2022-12-25T13:36:37.056Z,13.30
2022-12-25T13:39:09.214Z,13.20
2022-12-25T13:42:06.663Z,13.20
2022-12-25T13:44:50.516Z,13.10
2022-12-25T13:47:25.060Z,13.00
2022-12-25T13:49:54.640Z,12.90
2022-12-25T13:52:31.714Z,12.90
2022-12-25T13:55:01.724Z,12.90
2022-12-25T13:57:36.933Z,12.90
2022-12-25T14:00:07.451Z,12.90
2022-12-25T14:02:38.478Z,12.90
2022-12-25T14:05:27.203Z,12.90
2022-12-25T14:07:57.052Z,12.80
2022-12-25T14:10:27.235Z,12.70
2022-12-25T14:12:59.817Z,12.70
2022-12-25T14:15:30.266Z,12.70
2022-12-25T14:17:58.108Z,12.60
2022-12-25T14:20:32.561Z,12.60
2022-12-25T14:23:00.831Z,12.60
2022-12-25T14:25:32.059Z,12.60
2022-12-25T14:28:04.737Z,12.60
2022-12-25T14:30:32.581Z,12.50
2022-12-25T14:32:59.906Z,12.50
2022-12-25T14:35:27.225Z,12.40
2022-12-25T14:38:00.324Z,12.40
2022-12-25T14:40:34.131Z,12.40
2022-12-25T14:43:06.396Z,12.30
2022-12-25T14:45:38.425Z,12.30
2022-12-25T14:48:24.472Z,12.20
2022-12-25T14:50:58.429Z,12.20
2022-12-25T14:53:34.395Z,12.10
2022-12-25T14:56:01.813Z,12.00
2022-12-25T14:58:32.780Z,11.80
2022-12-25T15:01:05.044Z,11.80
2022-12-25T15:03:38.657Z,11.70
2022-12-25T15:06:19.155Z,11.70
2022-12-25T15:09:01.774Z,11.50
2022-12-25T15:11:30.405Z,11.40
2022-12-25T15:13:58.490Z,11.40
2022-12-25T15:16:30.940Z,11.30
2022-12-25T15:19:00.520Z,11.20
2022-12-25T15:21:30.376Z,11.30
2022-12-25T15:23:59.060Z,11.20
2022-12-25T15:26:28.329Z,11.10
2022-12-25T15:28:55.658Z,10.80
2022-12-25T15:31:33.511Z,10.80
2022-12-25T15:34:03.953Z,10.70
2022-12-25T15:36:32.221Z,10.60
2022-12-25T15:38:59.995Z,10.50
2022-12-25T15:41:50.126Z,10.50
2022-12-25T15:44:17.505Z,10.40
2022-12-25T15:46:46.011Z,10.30
2022-12-25T15:49:15.063Z,10.20
2022-12-25T15:51:43.500Z,10.20
2022-12-25T15:54:11.023Z,10.20
2022-12-25T15:56:51.600Z,10.20
2022-12-25T15:59:20.507Z,10.00
2022-12-25T16:01:50.699Z,10.00
2022-12-25T16:04:18.549Z,9.90
2022-12-25T16:06:46.067Z,9.70
2022-12-25T16:09:14.710Z,9.40
2022-12-25T16:11:42.434Z,9.30
2022-12-25T16:14:10.244Z,9.30
2022-12-25T16:16:38.042Z,9.10
2022-12-25T16:19:06.208Z,8.80
2022-12-25T16:21:43.445Z,8.80
2022-12-25T16:24:11.228Z,8.70
2022-12-25T16:26:38.617Z,8.70
2022-12-25T16:29:07.797Z,8.70
2022-12-25T16:31:37.009Z,8.70
2022-12-25T16:34:06.129Z,8.70
2022-12-25T16:36:34.372Z,8.70
2022-12-25T16:39:02.216Z,8.60
2022-12-25T16:41:29.483Z,8.60
2022-12-25T16:43:56.708Z,8.60
2022-12-25T16:46:24.120Z,8.50
2022-12-25T16:48:51.430Z,8.40
2022-12-25T16:51:21.119Z,8.30
2022-12-25T16:53:48.460Z,8.30
2022-12-25T16:56:18.340Z,8.30
2022-12-25T16:58:48.543Z,8.20
2022-12-25T17:01:17.974Z,8.20
2022-12-25T17:03:46.302Z,8.10
2022-12-25T17:06:20.599Z,8.10
2022-12-25T17:08:48.121Z,7.80
2022-12-25T17:11:16.780Z,7.80
2022-12-25T17:13:48.148Z,7.60
2022-12-25T17:16:24.916Z,7.50
2022-12-25T17:18:57.931Z,7.40
2022-12-25T17:21:26.440Z,7.40
2022-12-25T17:23:59.672Z,7.40
2022-12-25T17:26:29.607Z,7.40
2022-12-25T17:28:57.304Z,7.40
2022-12-25T17:31:24.701Z,7.40
2022-12-25T17:33:51.998Z,7.40
2022-12-25T17:36:21.179Z,7.40
2022-12-25T17:38:49.381Z,7.40
2022-12-25T17:41:18.680Z,7.40
2022-12-25T17:43:46.859Z,7.40
2022-12-25T17:46:18.606Z,7.20
2022-12-25T17:48:46.782Z,7.10
2022-12-25T17:51:16.480Z,7.00
2022-12-25T17:53:46.037Z,7.00
2022-12-25T17:56:14.451Z,6.90
2022-12-25T17:58:41.971Z,6.80
2022-12-25T18:01:14.731Z,6.70
2022-12-25T18:03:43.600Z,6.70
2022-12-25T18:06:13.600Z,6.70
2022-12-25T18:08:41.647Z,6.60
2022-12-25T18:11:15.091Z,6.60
2022-12-25T18:13:45.088Z,6.60
2022-12-25T18:16:13.438Z,6.60
2022-12-25T18:18:45.175Z,6.50
2022-12-25T18:21:17.057Z,6.50
2022-12-25T18:23:44.385Z,6.50
2022-12-25T18:26:12.138Z,6.50
2022-12-25T18:28:40.123Z,6.40
2022-12-25T18:31:10.154Z,6.40
2022-12-25T18:33:37.435Z,6.40
2022-12-25T18:36:04.980Z,6.40
2022-12-25T18:38:32.241Z,6.30
2022-12-25T18:40:59.707Z,6.30
2022-12-25T18:43:54.373Z,6.20
2022-12-25T18:46:15.502Z,6.20
2022-12-25T18:48:43.316Z,5.90
2022-12-25T18:51:13.630Z,5.90
2022-12-25T18:53:41.074Z,5.80
2022-12-25T18:56:15.583Z,5.90
2022-12-25T18:58:43.235Z,6.00
2022-12-25T19:01:21.746Z,5.90
2022-12-25T19:03:50.220Z,5.90
2022-12-25T19:06:23.498Z,6.00
2022-12-25T19:08:51.690Z,6.00
2022-12-25T19:11:19.544Z,6.00
2022-12-25T19:13:47.374Z,6.00
2022-12-25T19:16:15.203Z,6.00
2022-12-25T19:18:43.434Z,6.00
2022-12-25T19:21:10.929Z,6.10
2022-12-25T19:23:38.653Z,6.10
2022-12-25T19:26:07.551Z,6.10
2022-12-25T19:28:35.610Z,6.20
2022-12-25T19:31:04.535Z,6.10
2022-12-25T19:33:32.444Z,6.30
2022-12-25T19:36:06.330Z,6.20
2022-12-25T19:38:33.645Z,6.40
2022-12-25T19:41:13.010Z,6.40
2022-12-25T19:43:41.647Z,6.50
2022-12-25T19:46:15.115Z,6.50
2022-12-25T19:48:42.378Z,6.60
2022-12-25T19:51:24.935Z,6.60
2022-12-25T19:53:53.445Z,6.60
2022-12-25T19:56:20.700Z,6.60
2022-12-25T19:58:48.017Z,6.70
2022-12-25T20:01:18.095Z,6.70
2022-12-25T20:03:46.587Z,6.80
2022-12-25T20:06:22.068Z,6.80
2022-12-25T20:08:52.725Z,6.90
2022-12-25T20:11:21.793Z,6.90
2022-12-25T20:13:49.358Z,7.00
2022-12-25T20:16:16.701Z,7.10
2022-12-25T20:18:44.266Z,7.20
2022-12-25T20:21:19.630Z,7.20
2022-12-25T20:23:49.131Z,7.20
2022-12-25T20:26:19.041Z,7.20
2022-12-25T20:28:47.242Z,7.20
2022-12-25T20:31:18.435Z,7.20
2022-12-25T20:33:46.412Z,7.30
2022-12-25T20:36:14.351Z,7.40
2022-12-25T20:38:42.201Z,7.40
2022-12-25T20:41:29.500Z,7.40
2022-12-25T20:43:57.688Z,7.60
2022-12-25T20:46:26.120Z,7.80
2022-12-25T20:48:53.798Z,7.80
2022-12-25T20:51:23.214Z,7.80
2022-12-25T20:53:51.261Z,7.70
2022-12-25T20:56:21.018Z,7.70
2022-12-25T20:58:52.412Z,8.00
2022-12-25T21:01:19.812Z,8.00
2022-12-25T21:03:47.322Z,8.00
2022-12-25T21:06:14.641Z,8.10
2022-12-25T21:08:41.933Z,8.00
2022-12-25T21:11:09.648Z,8.00
2022-12-25T21:13:40.347Z,8.00
2022-12-25T21:16:11.363Z,7.90
2022-12-25T21:18:38.548Z,7.90
2022-12-25T21:21:07.580Z,7.90
2022-12-25T21:23:37.112Z,7.90
2022-12-25T21:26:12.661Z,7.80
2022-12-25T21:28:40.041Z,7.80
2022-12-25T21:31:08.226Z,7.80
2022-12-25T21:33:54.570Z,7.80
2022-12-25T21:36:29.524Z,7.70
2022-12-25T21:39:05.718Z,7.60
2022-12-25T21:41:34.364Z,7.50
2022-12-25T21:44:02.078Z,7.50
2022-12-25T21:46:29.483Z,7.40
2022-12-25T21:48:57.888Z,7.40
2022-12-25T21:51:47.291Z,7.40
2022-12-25T21:54:15.338Z,7.40
2022-12-25T21:56:45.440Z,7.40
2022-12-25T21:59:18.293Z,7.30
